Time;durP1;ratioP1;P1;durP2;ratioP2;P2;SDS_P1;SDS_P2;PMS_P1;PMS_P2;Temp;Humidity;BMP_temperature;BMP_pressure;BME280_temperature;BME280_humidity;BME280_pressure;Samples;Min_cycle;Max_cycle;Signal;HPM_P1;HPM_P2
2021/08/22 00:00:49;;;;;;;39.92;24.20;;;;;;;13.22;100.00;99485.44;4970239;28;20038;-78
2021/08/22 00:03:14;;;;;;;48.67;25.88;;;;;;;13.12;100.00;99491.66;4932554;28;20046;-77
2021/08/22 00:05:40;;;;;;;45.55;25.10;;;;;;;13.06;100.00;99500.81;4932504;28;20067;-76
2021/08/22 00:08:06;;;;;;;57.63;29.83;;;;;;;13.09;100.00;99492.19;4970486;28;20026;-76
2021/08/22 00:10:31;;;;;;;44.72;24.65;;;;;;;13.02;100.00;99501.34;4978118;28;20577;-76
2021/08/22 00:12:57;;;;;;;51.55;26.50;;;;;;;12.98;100.00;99500.25;4955373;28;20039;-77
2021/08/22 00:15:22;;;;;;;49.13;27.25;;;;;;;13.03;100.00;99502.16;4939044;28;20034;-77
2021/08/22 00:17:48;;;;;;;57.75;30.35;;;;;;;13.08;100.00;99514.88;4964293;28;20039;-77
2021/08/22 00:20:13;;;;;;;64.00;31.70;;;;;;;13.14;100.00;99516.53;4972564;28;20065;-77
2021/08/22 00:22:39;;;;;;;66.20;33.17;;;;;;;13.21;100.00;99518.97;4972889;28;20534;-77
2021/08/22 00:25:06;;;;;;;57.30;30.98;;;;;;;13.25;100.00;99515.47;4931953;28;20130;-78
2021/08/22 00:27:31;;;;;;;52.58;29.30;;;;;;;13.32;100.00;99512.53;4959243;28;20506;-78
2021/08/22 00:29:57;;;;;;;54.00;28.63;;;;;;;13.38;100.00;99514.19;4964626;28;20035;-78
2021/08/22 00:32:22;;;;;;;49.10;27.10;;;;;;;13.41;100.00;99524.47;4967243;28;20049;-78
2021/08/22 00:34:48;;;;;;;50.03;27.88;;;;;;;13.48;100.00;99518.81;4973326;28;20046;-77
2021/08/22 00:37:14;;;;;;;47.70;26.83;;;;;;;13.51;100.00;99518.28;4965510;28;20027;-78
2021/08/22 00:39:39;;;;;;;54.88;29.02;;;;;;;13.55;100.00;99513.97;4973020;28;20035;-78
2021/08/22 00:42:07;;;;;;;49.65;26.83;;;;;;;13.67;100.00;99518.31;4963900;28;20046;-78
2021/08/22 00:44:34;;;;;;;49.40;26.75;;;;;;;13.69;100.00;99530.50;4965924;28;20031;-78
2021/08/22 00:47:01;;;;;;;48.28;26.70;;;;;;;13.69;100.00;99516.97;4963813;28;20058;-78
2021/08/22 00:49:28;;;;;;;49.97;27.15;;;;;;;13.68;100.00;99520.75;4970807;28;20038;-77
2021/08/22 00:51:54;;;;;;;51.78;26.10;;;;;;;13.69;100.00;99518.84;4968751;28;20038;-77
2021/08/22 00:54:20;;;;;;;44.08;24.65;;;;;;;13.67;100.00;99518.31;4974368;28;20053;-76
2021/08/22 00:56:45;;;;;;;42.65;23.60;;;;;;;13.67;100.00;99526.41;4966005;28;20035;-77
2021/08/22 00:59:13;;;;;;;41.47;23.90;;;;;;;13.66;100.00;99522.09;4970184;28;20118;-77
2021/08/22 01:01:40;;;;;;;48.75;24.77;;;;;;;13.64;100.00;99518.84;4979081;28;20097;-77
2021/08/22 01:04:17;;;;;;;46.60;24.95;;;;;;;13.62;100.00;99521.81;4976741;28;20051;-77
2021/08/22 01:07:01;;;;;;;49.42;25.05;;;;;;;13.65;100.00;99523.16;4969517;28;20485;-77
2021/08/22 01:09:39;;;;;;;51.58;27.00;;;;;;;13.65;100.00;99523.16;4958346;28;20042;-77
2021/08/22 01:12:14;;;;;;;45.58;25.52;;;;;;;13.65;100.00;99525.88;4966164;28;20042;-78
2021/08/22 01:14:48;;;;;;;43.22;25.20;;;;;;;13.65;100.00;99526.72;4965553;28;20097;-77
2021/08/22 01:17:16;;;;;;;51.95;27.10;;;;;;;13.64;100.00;99524.25;4964829;28;20035;-78
2021/08/22 01:19:51;;;;;;;42.90;25.63;;;;;;;13.65;100.00;99523.16;4968265;28;20042;-77
2021/08/22 01:22:19;;;;;;;48.20;25.45;;;;;;;13.67;100.00;99513.72;4965850;28;20026;-77
2021/08/22 01:24:45;;;;;;;44.33;25.98;;;;;;;13.65;100.00;99509.63;4968059;28;20047;-77
2021/08/22 01:27:12;;;;;;;49.50;27.23;;;;;;;13.63;100.00;99509.09;4964360;28;20023;-77
2021/08/22 01:29:44;;;;;;;45.72;23.20;;;;;;;13.70;100.00;99505.06;4969149;28;20077;-77
2021/08/22 01:32:12;;;;;;;43.83;24.00;;;;;;;13.63;100.00;99500.97;4946732;28;20403;-77
2021/08/22 01:34:39;;;;;;;37.83;22.17;;;;;;;13.52;100.00;99505.56;4962646;28;20053;-77
2021/08/22 01:37:05;;;;;;;39.22;22.52;;;;;;;13.45;100.00;99505.81;4964387;28;20031;-78
2021/08/22 01:39:32;;;;;;;44.00;24.00;;;;;;;13.42;100.00;99514.47;4959693;28;20034;-77
2021/08/22 01:41:59;;;;;;;43.50;24.92;;;;;;;13.41;100.00;99507.41;4959944;28;20040;-77
2021/08/22 01:44:25;;;;;;;45.88;26.00;;;;;;;13.42;100.00;99515.31;4956908;28;20043;-77
2021/08/22 01:46:52;;;;;;;43.80;25.48;;;;;;;13.44;100.00;99523.13;4953314;28;20109;-77
2021/08/22 01:49:19;;;;;;;42.83;25.38;;;;;;;13.48;100.00;99524.22;4956139;28;20045;-77
2021/08/22 01:51:46;;;;;;;39.83;23.35;;;;;;;13.54;100.00;99517.75;4955710;28;20074;-77
2021/08/22 01:54:11;;;;;;;41.47;23.67;;;;;;;13.61;100.00;99525.63;4956856;28;20038;-78
2021/08/22 01:56:39;;;;;;;33.75;21.52;;;;;;;13.67;100.00;99529.13;4961391;28;20031;-76
2021/08/22 01:59:06;;;;;;;43.83;22.75;;;;;;;13.67;100.00;99529.97;4958615;28;20078;-77
2021/08/22 02:01:36;;;;;;;41.95;23.17;;;;;;;13.73;100.00;99538.88;4959805;28;20038;-77
2021/08/22 02:04:20;;;;;;;40.30;22.85;;;;;;;13.81;100.00;99535.63;4956967;28;20393;-76
2021/08/22 02:07:09;;;;;;;32.90;20.67;;;;;;;13.90;100.00;99536.72;4964698;28;20063;-77
2021/08/22 02:09:44;;;;;;;35.60;20.73;;;;;;;13.86;100.00;99534.84;4947628;28;20059;-76
2021/08/22 02:12:16;;;;;;;31.50;19.77;;;;;;;13.84;100.00;99535.09;4955493;28;20468;-76
2021/08/22 02:14:49;;;;;;;36.55;20.35;;;;;;;13.81;100.00;99529.44;4961507;28;20697;-77
2021/08/22 02:17:17;;;;;;;33.05;19.30;;;;;;;13.80;100.00;99533.22;4958074;28;20507;-76
2021/08/22 02:19:43;;;;;;;36.90;21.67;;;;;;;13.81;100.00;99534.84;4950652;28;20477;-75
2021/08/22 02:22:09;;;;;;;37.13;20.25;;;;;;;13.75;100.00;99544.84;4954165;28;20043;-76
2021/08/22 02:24:35;;;;;;;37.50;21.60;;;;;;;13.74;100.00;99530.50;4962825;28;20122;-76
2021/08/22 02:27:01;;;;;;;30.20;18.60;;;;;;;13.71;100.00;99538.34;4956540;28;20054;-76
2021/08/22 02:29:27;;;;;;;36.90;19.77;;;;;;;13.67;100.00;99542.66;4950158;28;20514;-76
2021/08/22 02:31:52;;;;;;;38.40;21.88;;;;;;;13.65;100.00;99542.94;4970263;28;20038;-76
2021/08/22 02:34:18;;;;;;;40.10;22.05;;;;;;;13.63;100.00;99542.41;4947331;28;20054;-75
2021/08/22 02:36:43;;;;;;;40.58;21.63;;;;;;;13.63;100.00;99539.69;4955684;28;20040;-76
2021/08/22 02:39:09;;;;;;;29.13;17.80;;;;;;;13.57;100.00;99544.25;4963681;28;20042;-75
2021/08/22 02:41:34;;;;;;;31.02;18.55;;;;;;;13.55;100.00;99537.50;4962403;28;20041;-75
2021/08/22 02:44:00;;;;;;;30.63;19.17;;;;;;;13.54;100.00;99544.00;4959876;28;20039;-75
2021/08/22 02:46:26;;;;;;;32.53;19.42;;;;;;;13.55;100.00;99543.72;4967867;28;20035;-76
2021/08/22 02:48:51;;;;;;;28.00;17.88;;;;;;;13.62;100.00;99551.59;4969365;28;20046;-75
2021/08/22 02:51:17;;;;;;;34.85;20.02;;;;;;;13.64;100.00;99544.03;4961232;28;20042;-75
2021/08/22 02:53:42;;;;;;;38.97;21.45;;;;;;;13.74;100.00;99543.22;4957677;28;20051;-76
2021/08/22 02:56:08;;;;;;;35.05;20.50;;;;;;;13.89;100.00;99545.94;4974357;28;20039;-75
2021/08/22 02:58:33;;;;;;;31.65;19.02;;;;;;;13.87;100.00;99550.81;4973094;28;20093;-75
2021/08/22 03:00:59;;;;;;;32.72;19.35;;;;;;;13.84;100.00;99550.53;4968974;28;20035;-75
2021/08/22 03:03:26;;;;;;;33.78;20.85;;;;;;;13.81;100.00;99551.88;4967104;28;20050;-75
2021/08/22 03:05:51;;;;;;;33.10;19.98;;;;;;;13.83;100.00;99557.03;4957062;28;20039;-75
2021/08/22 03:08:17;;;;;;;29.45;18.17;;;;;;;13.83;100.00;99554.34;4959654;28;20035;-75
2021/08/22 03:10:45;;;;;;;29.60;18.95;;;;;;;13.82;100.00;99560.81;4957008;28;20118;-75
2021/08/22 03:13:12;;;;;;;31.77;18.40;;;;;;;13.87;100.00;99561.63;4957565;28;20033;-76
2021/08/22 03:15:38;;;;;;;34.63;20.17;;;;;;;13.84;100.00;99553.25;4961636;28;20066;-75
2021/08/22 03:18:04;;;;;;;32.05;19.70;;;;;;;13.83;100.00;99554.34;4964085;28;20110;-76
2021/08/22 03:20:29;;;;;;;35.40;20.05;;;;;;;13.84;100.00;99558.66;4957826;28;20038;-75
2021/08/22 03:22:55;;;;;;;36.33;20.08;;;;;;;13.83;100.00;99557.84;4956742;28;20035;-76
2021/08/22 03:25:21;;;;;;;38.42;21.15;;;;;;;13.83;100.00;99557.84;4963623;28;20122;-75
2021/08/22 03:27:46;;;;;;;33.30;20.85;;;;;;;13.91;100.00;99565.44;4964052;28;20033;-75
2021/08/22 03:30:12;;;;;;;29.63;19.05;;;;;;;14.02;100.00;99566.25;4975052;28;20400;-75
2021/08/22 03:32:37;;;;;;;29.25;18.67;;;;;;;13.96;100.00;99569.22;4961566;28;20615;-75
2021/08/22 03:35:04;;;;;;;33.65;20.52;;;;;;;13.95;100.00;99567.59;4959224;28;20075;-75
2021/08/22 03:37:29;;;;;;;36.63;21.98;;;;;;;13.92;100.00;99568.97;4957014;28;20031;-75
2021/08/22 03:39:55;;;;;;;39.28;22.88;;;;;;;13.95;100.00;99567.59;4956148;28;20515;-75
2021/08/22 03:42:21;;;;;;;39.47;22.85;;;;;;;13.96;100.00;99561.09;4967919;28;20075;-75
2021/08/22 03:44:46;;;;;;;38.90;23.50;;;;;;;13.98;100.00;99567.06;4956205;28;20460;-75
2021/08/22 03:47:12;;;;;;;40.00;23.60;;;;;;;13.98;100.00;99562.47;4970343;28;20559;-75
2021/08/22 03:49:37;;;;;;;43.20;24.25;;;;;;;14.05;100.00;99560.31;4957593;28;20469;-75
2021/08/22 03:52:03;;;;;;;38.28;21.60;;;;;;;14.02;100.00;99555.44;4963769;28;20074;-74
2021/08/22 03:54:29;;;;;;;40.97;22.95;;;;;;;14.03;100.00;99558.94;4955125;28;20385;-73
2021/08/22 03:56:54;;;;;;;37.65;22.02;;;;;;;14.07;100.00;99565.44;4955203;28;20043;-75
2021/08/22 03:59:20;;;;;;;39.30;21.58;;;;;;;14.05;100.00;99563.00;4956564;28;20097;-75
2021/08/22 04:01:46;;;;;;;37.20;22.67;;;;;;;14.09;100.00;99565.97;4966320;28;20039;-75
2021/08/22 04:04:11;;;;;;;41.85;23.55;;;;;;;14.03;100.00;99567.88;4956808;28;20043;-75
2021/08/22 04:06:38;;;;;;;39.42;22.55;;;;;;;14.07;100.00;99570.06;4957196;28;20043;-75
2021/08/22 04:09:03;;;;;;;36.40;22.40;;;;;;;14.04;100.00;99569.50;4955901;28;20050;-76
2021/08/22 04:11:30;;;;;;;36.00;21.95;;;;;;;14.02;100.00;99579.81;4954639;28;20039;-75
2021/08/22 04:13:57;;;;;;;39.97;23.38;;;;;;;14.03;100.00;99586.00;4964947;28;20035;-75
2021/08/22 04:16:23;;;;;;;35.25;20.73;;;;;;;14.02;100.00;99584.38;4956315;28;20504;-75
2021/08/22 04:18:49;;;;;;;44.45;22.73;;;;;;;14.08;100.00;99582.50;4965433;28;20040;-75
2021/08/22 04:21:16;;;;;;;36.67;22.10;;;;;;;14.09;100.00;99579.53;4954594;28;20052;-75
2021/08/22 04:23:41;;;;;;;40.05;22.88;;;;;;;14.09;100.00;99584.13;4954057;28;20041;-75
2021/08/22 04:26:07;;;;;;;41.97;23.80;;;;;;;14.05;100.00;99584.69;4954792;28;20392;-75
2021/08/22 04:28:37;;;;;;;47.58;25.50;;;;;;;14.05;100.00;99586.56;4954656;28;20030;-76
2021/08/22 04:31:02;;;;;;;41.80;23.90;;;;;;;14.08;100.00;99594.13;4954474;28;20820;-75
2021/08/22 04:33:28;;;;;;;37.67;22.63;;;;;;;14.12;100.00;99589.81;4958055;28;20051;-75
2021/08/22 04:35:54;;;;;;;41.80;23.35;;;;;;;14.17;100.00;99595.25;4955611;28;20485;-75
2021/08/22 04:38:20;;;;;;;39.30;22.70;;;;;;;14.23;100.00;99587.94;4953566;28;20110;-75
2021/08/22 04:40:46;;;;;;;38.88;22.05;;;;;;;14.14;100.00;99584.97;4963937;28;20031;-75
2021/08/22 04:43:11;;;;;;;44.28;24.65;;;;;;;14.15;100.00;99591.19;4961665;28;20051;-75
2021/08/22 04:45:37;;;;;;;42.97;22.58;;;;;;;14.16;100.00;99584.69;4971953;28;20035;-75
2021/08/22 04:48:02;;;;;;;42.13;23.00;;;;;;;14.13;100.00;99587.94;4972712;28;20123;-76
2021/08/22 04:50:28;;;;;;;48.33;23.75;;;;;;;14.15;100.00;99593.88;4966862;28;20118;-75
2021/08/22 04:52:53;;;;;;;38.80;22.67;;;;;;;14.13;100.00;99585.22;4970609;28;20122;-75
2021/08/22 04:55:19;;;;;;;43.70;25.13;;;;;;;14.14;100.00;99589.56;4971463;28;20042;-75
2021/08/22 04:57:45;;;;;;;38.05;23.33;;;;;;;14.13;100.00;99586.03;4953781;28;20027;-75
2021/08/22 05:00:11;;;;;;;50.40;27.45;;;;;;;14.14;100.00;99593.09;4963662;28;20027;-75
2021/08/22 05:02:37;;;;;;;46.40;25.42;;;;;;;14.24;100.00;99602.31;4969969;28;20587;-75
2021/08/22 05:05:02;;;;;;;44.33;24.75;;;;;;;14.20;100.00;99594.72;4971870;28;20054;-75
2021/08/22 05:07:28;;;;;;;44.95;25.85;;;;;;;14.22;100.00;99609.88;4971853;28;20039;-75
2021/08/22 05:09:53;;;;;;;47.72;25.73;;;;;;;14.17;100.00;99611.50;4965681;28;20051;-76
2021/08/22 05:12:19;;;;;;;49.55;26.17;;;;;;;14.16;100.00;99615.31;4962828;28;20039;-76
2021/08/22 05:14:44;;;;;;;52.00;27.13;;;;;;;14.13;100.00;99615.00;4952431;28;20035;-75
2021/08/22 05:17:11;;;;;;;49.90;28.02;;;;;;;14.16;100.00;99617.19;4971876;28;20046;-75
2021/08/22 05:19:37;;;;;;;57.13;27.88;;;;;;;14.17;100.00;99618.81;4971589;28;20027;-75
2021/08/22 05:22:03;;;;;;;45.42;24.33;;;;;;;14.22;100.00;99618.00;4969816;28;20404;-75
2021/08/22 05:24:29;;;;;;;43.22;24.55;;;;;;;14.22;100.00;99629.66;4971080;28;20138;-75
2021/08/22 05:26:55;;;;;;;50.25;27.00;;;;;;;14.15;100.00;99629.09;4969809;28;20035;-74
2021/08/22 05:29:21;;;;;;;51.97;26.65;;;;;;;14.12;100.00;99641.28;4965483;28;20042;-76
2021/08/22 05:31:46;;;;;;;51.03;27.85;;;;;;;14.09;100.00;99636.38;4964012;28;20039;-75
2021/08/22 05:34:11;;;;;;;55.67;26.75;;;;;;;14.10;100.00;99634.50;4969364;28;20125;-75
2021/08/22 05:36:37;;;;;;;57.15;29.20;;;;;;;14.15;100.00;99642.63;4976552;28;20062;-75
2021/08/22 05:39:05;;;;;;;49.33;26.60;;;;;;;14.09;100.00;99643.72;4958163;28;20503;-75
2021/08/22 05:41:31;;;;;;;48.63;25.98;;;;;;;14.03;100.00;99654.53;4960872;28;20475;-75
2021/08/22 05:43:56;;;;;;;48.03;25.95;;;;;;;13.94;100.00;99653.44;4955397;28;20134;-75
2021/08/22 05:46:22;;;;;;;51.38;25.95;;;;;;;13.85;100.00;99663.97;4964689;28;20480;-75
2021/08/22 05:48:47;;;;;;;51.47;26.73;;;;;;;13.80;100.00;99665.84;4969850;28;20040;-75
2021/08/22 05:51:19;;;;;;;44.70;24.27;;;;;;;13.77;100.00;99669.88;4971200;28;20038;-75
2021/08/22 05:53:44;;;;;;;67.68;32.78;;;;;;;13.81;100.00;99672.91;4957781;28;20730;-75
2021/08/22 05:56:10;;;;;;;67.45;31.27;;;;;;;13.83;100.00;99678.84;4965045;28;20035;-75
2021/08/22 05:58:36;;;;;;;68.97;33.05;;;;;;;13.93;100.00;99678.06;4964631;28;20058;-75
2021/08/22 06:01:01;;;;;;;75.50;35.30;;;;;;;14.01;100.00;99682.94;4968190;28;20034;-75
2021/08/22 06:03:26;;;;;;;85.43;39.22;;;;;;;14.09;100.00;99684.34;4962941;28;20489;-75
2021/08/22 06:05:53;;;;;;;83.82;37.63;;;;;;;14.23;100.00;99684.66;4953877;28;20042;-74
2021/08/22 06:08:18;;;;;;;81.47;37.78;;;;;;;14.29;100.00;99678.97;4957907;28;20027;-74
2021/08/22 06:10:44;;;;;;;76.53;36.55;;;;;;;14.29;100.00;99683.56;4960935;28;20047;-76
2021/08/22 06:13:09;;;;;;;76.85;35.65;;;;;;;14.41;100.00;99686.84;4965778;28;20682;-75
2021/08/22 06:15:35;;;;;;;71.10;36.22;;;;;;;14.47;100.00;99691.19;4971156;28;20035;-75
2021/08/22 06:18:00;;;;;;;60.60;31.65;;;;;;;14.56;100.00;99694.16;4958811;28;20040;-74
2021/08/22 06:20:26;;;;;;;54.88;29.30;;;;;;;14.59;100.00;99706.38;4965248;28;20033;-74
2021/08/22 06:22:52;;;;;;;56.75;27.67;;;;;;;14.70;100.00;99713.44;4953337;28;20039;-74
2021/08/22 06:25:17;;;;;;;35.88;21.33;;;;;;;14.75;100.00;99709.91;4965200;28;20039;-74
2021/08/22 06:27:43;;;;;;;38.40;21.13;;;;;;;14.91;100.00;99721.56;4958034;28;20055;-74
2021/08/22 06:30:09;;;;;;;38.28;20.65;;;;;;;15.02;100.00;99716.94;4960166;28;20071;-74
2021/08/22 06:32:34;;;;;;;22.10;13.60;;;;;;;15.14;99.79;99724.81;4951944;28;20061;-74
2021/08/22 06:35:00;;;;;;;23.60;12.77;;;;;;;15.17;99.51;99725.09;4952245;28;20055;-74
2021/08/22 06:37:25;;;;;;;25.48;12.60;;;;;;;15.33;98.53;99731.28;4957363;28;20049;-74
2021/08/22 06:39:51;;;;;;;19.50;9.95;;;;;;;15.42;98.50;99731.56;4957902;28;20038;-74
2021/08/22 06:42:16;;;;;;;18.58;9.77;;;;;;;15.60;98.40;99737.47;4968304;28;20051;-74
2021/08/22 06:44:42;;;;;;;12.18;5.75;;;;;;;15.59;97.19;99741.28;4945802;28;20031;-74
2021/08/22 06:47:10;;;;;;;11.18;6.43;;;;;;;15.65;97.44;99746.41;4971417;28;20472;-75
2021/08/22 06:49:37;;;;;;;13.27;6.90;;;;;;;15.71;97.59;99739.06;4959194;28;20114;-77
2021/08/22 06:52:07;;;;;;;8.38;5.38;;;;;;;15.69;97.16;99748.56;4972473;28;20444;-74
2021/08/22 06:54:33;;;;;;;9.32;5.35;;;;;;;15.68;97.18;99747.75;4961950;28;20034;-74
2021/08/22 06:56:58;;;;;;;8.00;5.00;;;;;;;15.62;97.18;99755.09;4958493;28;20119;-74
2021/08/22 06:59:25;;;;;;;8.45;4.68;;;;;;;15.66;97.39;99758.09;4960293;28;20035;-73
2021/08/22 07:02:00;;;;;;;6.70;4.07;;;;;;;15.64;96.58;99765.69;4934260;28;10000953;-73
2021/08/22 07:04:25;;;;;;;6.65;4.03;;;;;;;15.56;97.84;99767.06;4959794;28;20246;-73
2021/08/22 07:06:51;;;;;;;5.32;3.75;;;;;;;15.60;97.61;99765.41;4962183;28;20043;-73
2021/08/22 07:09:16;;;;;;;7.72;3.70;;;;;;;15.48;98.37;99765.72;4960549;28;20047;-73
2021/08/22 07:11:43;;;;;;;6.45;3.80;;;;;;;15.43;99.40;99771.16;4960653;28;20385;-73
2021/08/22 07:14:09;;;;;;;8.63;4.18;;;;;;;15.36;99.03;99773.34;4959728;28;20038;-73
2021/08/22 07:16:35;;;;;;;5.68;4.10;;;;;;;15.36;99.19;99776.06;4957412;28;20491;-72
2021/08/22 07:19:01;;;;;;;6.80;4.57;;;;;;;15.40;99.73;99782.56;4959414;28;20492;-73
2021/08/22 07:21:26;;;;;;;9.85;4.70;;;;;;;15.35;99.83;99777.94;4961839;28;20045;-74
2021/08/22 07:23:52;;;;;;;8.48;5.07;;;;;;;15.43;100.00;99782.03;4958824;28;20042;-73
2021/08/22 07:26:18;;;;;;;9.25;5.10;;;;;;;15.72;98.98;99786.03;4953062;28;20514;-73
2021/08/22 07:28:43;;;;;;;9.35;5.78;;;;;;;15.82;97.50;99783.28;4960369;28;20554;-73
2021/08/22 07:31:09;;;;;;;11.73;5.47;;;;;;;15.82;97.12;99788.69;4962878;28;20496;-73
2021/08/22 07:33:34;;;;;;;10.98;5.38;;;;;;;15.99;97.23;99785.69;4961049;28;20418;-74
2021/08/22 07:36:01;;;;;;;12.35;5.15;;;;;;;16.09;95.99;99790.28;4962498;28;20027;-74
2021/08/22 07:38:26;;;;;;;8.73;5.15;;;;;;;16.24;95.42;99795.66;4956696;28;20035;-73
2021/08/22 07:40:52;;;;;;;10.20;5.35;;;;;;;16.24;94.29;99795.66;4962731;28;20054;-73
2021/08/22 07:43:17;;;;;;;10.73;5.75;;;;;;;16.13;94.60;99806.84;4951061;28;20043;-74
2021/08/22 07:45:44;;;;;;;11.07;5.88;;;;;;;16.01;95.94;99807.16;4957027;28;20098;-75
2021/08/22 07:48:09;;;;;;;11.35;5.80;;;;;;;16.03;94.74;99805.00;4956530;28;20039;-78
2021/08/22 07:50:35;;;;;;;10.10;5.57;;;;;;;16.04;94.95;99812.03;4966909;28;20089;-77
2021/08/22 07:53:01;;;;;;;11.65;5.88;;;;;;;16.06;93.99;99818.00;4967246;28;20085;-78
2021/08/22 07:55:27;;;;;;;12.27;5.68;;;;;;;16.04;94.11;99828.34;4957619;28;20079;-78
2021/08/22 07:57:53;;;;;;;7.78;5.35;;;;;;;16.08;95.61;99826.69;4954705;28;20449;-78
2021/08/22 08:00:20;;;;;;;10.80;6.25;;;;;;;16.15;95.03;99832.66;4961247;28;20039;-78
2021/08/22 08:02:45;;;;;;;10.25;5.97;;;;;;;16.15;94.20;99820.94;4964017;28;20132;-73
2021/08/22 08:05:11;;;;;;;9.15;5.38;;;;;;;16.12;93.96;99826.94;4961885;28;20480;-78
2021/08/22 08:07:37;;;;;;;9.60;5.53;;;;;;;16.26;93.34;99836.13;4965091;28;20065;-77
2021/08/22 08:10:04;;;;;;;8.93;5.25;;;;;;;16.24;93.16;99835.59;4968766;28;20491;-78
2021/08/22 08:12:30;;;;;;;9.35;5.22;;;;;;;16.34;93.15;99837.47;4964669;28;20162;-78
2021/08/22 08:14:57;;;;;;;15.88;4.70;;;;;;;16.54;91.36;99841.97;4964128;28;20134;-78
2021/08/22 08:17:23;;;;;;;8.27;4.50;;;;;;;16.73;90.83;99841.31;4956074;28;20448;-75
2021/08/22 08:19:49;;;;;;;7.55;4.05;;;;;;;16.92;89.74;99847.75;4967577;28;20038;-78
2021/08/22 08:22:14;;;;;;;7.63;4.40;;;;;;;17.05;91.10;99850.97;4963320;28;20412;-79
2021/08/22 08:24:40;;;;;;;8.20;4.05;;;;;;;17.36;88.70;99848.78;4963320;28;20413;-80
2021/08/22 08:27:06;;;;;;;11.63;3.85;;;;;;;17.31;85.26;99851.56;4970448;28;20073;-79
2021/08/22 08:29:32;;;;;;;8.57;3.85;;;;;;;17.47;86.88;99849.53;4954290;28;20123;-79
2021/08/22 08:31:57;;;;;;;7.57;3.50;;;;;;;17.61;85.12;99855.09;4967837;28;20045;-79
2021/08/22 08:34:23;;;;;;;5.18;3.33;;;;;;;17.92;84.94;99856.72;4955217;28;20043;-78
2021/08/22 08:36:48;;;;;;;6.90;3.28;;;;;;;18.09;84.87;99859.03;4958383;28;20066;-77
2021/08/22 08:39:14;;;;;;;8.00;3.55;;;;;;;18.07;83.55;99858.50;4955076;28;20070;-79
2021/08/22 08:41:40;;;;;;;6.57;2.85;;;;;;;17.97;82.14;99870.28;4961617;28;20027;-80
2021/08/22 08:44:06;;;;;;;6.70;3.30;;;;;;;17.99;83.26;99866.19;4953523;28;20037;-81
2021/08/22 08:46:50;;;;;;;7.43;3.85;;;;;;;17.82;84.06;99865.81;4957383;28;20031;-80
2021/08/22 08:49:23;;;;;;;6.40;3.25;;;;;;;17.88;82.10;99870.13;4967125;28;20030;-79
2021/08/22 08:51:54;;;;;;;;;;;;;;;17.93;82.90;99875.50;4962179;28;20027;-78
2021/08/22 08:54:35;;;;;;;6.38;3.22;;;;;;;18.01;82.09;99870.56;4962740;28;19980;-78
2021/08/22 08:57:01;;;;;;;4.78;2.92;;;;;;;17.82;83.68;99879.44;4956582;28;20519;-80
2021/08/22 08:59:26;;;;;;;7.20;3.67;;;;;;;17.89;82.96;99890.00;4967253;28;20034;-81
2021/08/22 09:01:56;;;;;;;5.30;2.80;;;;;;;17.88;83.11;99894.63;4959259;28;20043;-80
2021/08/22 09:04:27;;;;;;;5.07;2.90;;;;;;;17.83;82.68;99884.59;4959038;28;20066;-79
2021/08/22 09:07:17;;;;;;;6.03;2.90;;;;;;;17.83;83.54;99894.69;4956032;28;20050;-79
2021/08/22 09:09:55;;;;;;;3.53;2.25;;;;;;;17.85;82.47;99895.22;4969382;28;20037;-82
2021/08/22 09:12:58;;;;;;;4.40;2.55;;;;;;;17.84;83.62;99902.56;4968675;28;20047;-81
2021/08/22 09:15:43;;;;;;;4.72;3.08;;;;;;;17.96;82.47;99896.72;4964341;28;20468;-81
2021/08/22 09:18:27;;;;;;;7.50;2.90;;;;;;;17.68;83.52;99917.44;4958516;28;20077;-79
2021/08/22 09:21:08;;;;;;;5.45;2.83;;;;;;;17.50;85.46;99910.75;4953960;28;20090;-80
2021/08/22 09:23:38;;;;;;;4.78;3.08;;;;;;;17.53;84.76;99919.19;4955112;28;20062;-80
2021/08/22 09:26:21;;;;;;;5.78;2.42;;;;;;;17.51;83.35;99912.38;4967810;28;20038;-79
2021/08/22 09:29:24;;;;;;;4.13;2.38;;;;;;;17.68;83.90;99917.44;4954082;28;20031;-77
2021/08/22 09:32:27;;;;;;;3.55;2.60;;;;;;;17.93;80.77;99918.28;4952963;28;20047;-77
2021/08/22 09:35:31;;;;;;;4.63;2.42;;;;;;;18.14;79.37;99917.00;4954174;28;20043;-77
2021/08/22 09:38:15;;;;;;;;;;;;;;;18.09;81.22;99927.97;4933022;28;20075;-77
2021/08/22 09:40:59;;;;;;;3.33;2.67;;;;;;;17.98;82.94;99932.69;4962064;28;19922;-77
2021/08/22 09:43:55;;;;;;;6.38;3.17;;;;;;;17.95;82.30;99937.88;4954561;28;20039;-78
2021/08/22 09:46:59;;;;;;;8.63;3.10;;;;;;;17.78;81.91;99939.13;4962335;28;20030;-76
2021/08/22 09:50:02;;;;;;;8.23;3.13;;;;;;;17.52;82.02;99949.41;4953564;28;20047;-77
2021/08/22 09:52:53;;;;;;;7.07;3.42;;;;;;;17.36;84.33;99946.00;4960935;28;20047;-77
2021/08/22 09:55:55;;;;;;;7.18;3.15;;;;;;;17.24;84.37;99952.59;4964391;28;20046;-78
2021/08/22 09:58:58;;;;;;;5.28;2.90;;;;;;;17.39;83.78;99959.84;4954197;28;20039;-77
2021/08/22 10:01:37;;;;;;;6.00;3.60;;;;;;;17.56;82.44;99956.75;4956057;28;20527;-81
2021/08/22 10:04:18;;;;;;;9.77;3.75;;;;;;;17.75;82.75;99953.31;4956968;28;20035;-78
2021/08/22 10:07:13;;;;;;;5.40;2.80;;;;;;;18.04;80.72;99951.75;4959101;28;20473;-77
2021/08/22 10:10:07;;;;;;;4.47;2.83;;;;;;;18.09;80.92;99954.41;4957647;28;20043;-79
2021/08/22 10:12:32;;;;;;;6.45;2.80;;;;;;;17.74;84.42;99964.50;4966376;28;20039;-81
2021/08/22 10:14:58;;;;;;;9.65;2.60;;;;;;;17.35;85.56;99966.16;4952545;28;20043;-78
2021/08/22 10:17:26;;;;;;;4.85;2.67;;;;;;;17.17;86.06;99968.44;4963296;28;20042;-79
2021/08/22 10:19:55;;;;;;;7.05;2.88;;;;;;;17.09;88.61;99975.28;4968157;28;20472;-80
2021/08/22 10:22:30;;;;;;;4.70;2.95;;;;;;;17.02;87.60;99976.69;4963260;28;20043;-79
2021/08/22 10:24:57;;;;;;;6.15;3.20;;;;;;;16.97;86.05;99978.34;4968727;28;20046;-81
2021/08/22 10:27:32;;;;;;;5.70;3.42;;;;;;;17.24;84.99;99982.53;4965986;28;20059;-79
2021/08/22 10:29:59;;;;;;;7.93;3.40;;;;;;;17.32;85.22;99986.56;4961638;28;20484;-79
2021/08/22 10:32:25;;;;;;;6.40;3.40;;;;;;;17.41;85.28;99989.53;4958528;28;20063;-78
2021/08/22 10:35:10;;;;;;;5.32;3.42;;;;;;;17.67;83.02;99992.06;4961409;28;20508;-78
2021/08/22 10:37:36;;;;;;;9.38;3.45;;;;;;;17.87;82.23;99987.53;4971220;28;20045;-79
2021/08/22 10:40:23;;;;;;;5.68;2.88;;;;;;;18.09;80.46;99993.38;4970184;28;20034;-79
2021/08/22 10:43:04;;;;;;;4.45;2.67;;;;;;;18.10;78.35;99986.81;4956520;28;20062;-79
2021/08/22 10:45:46;;;;;;;4.80;2.70;;;;;;;18.21;78.91;99986.72;4962931;28;20039;-79
2021/08/22 10:48:24;;;;;;;4.20;2.10;;;;;;;18.56;78.36;99990.19;4970089;28;20542;-80
2021/08/22 10:50:59;;;;;;;6.35;2.63;;;;;;;18.73;78.48;99997.91;4960287;28;20114;-78
2021/08/22 10:53:30;;;;;;;3.03;2.03;;;;;;;18.66;76.13;99991.97;4962701;28;20127;-76
2021/08/22 10:56:17;;;;;;;5.22;1.90;;;;;;;18.65;75.91;100002.09;4958388;28;20035;-80
2021/08/22 10:58:58;;;;;;;2.90;1.90;;;;;;;18.78;75.55;100005.22;4962927;28;20467;-80
2021/08/22 11:01:36;;;;;;;4.03;1.70;;;;;;;18.74;76.29;100002.25;4957316;28;20117;-78
2021/08/22 11:04:06;;;;;;;2.60;1.60;;;;;;;18.87;76.03;100000.75;4961422;28;20034;-79
2021/08/22 11:06:33;;;;;;;2.65;1.67;;;;;;;18.96;74.85;100007.19;4956161;28;20038;-79
2021/08/22 11:08:59;;;;;;;3.13;1.58;;;;;;;18.93;76.00;100018.69;4973228;28;20086;-79
2021/08/22 11:11:25;;;;;;;5.43;1.67;;;;;;;18.85;75.09;100006.47;4956714;28;20030;-78
2021/08/22 11:13:58;;;;;;;6.25;1.50;;;;;;;19.06;75.37;100013.63;4957089;28;20523;-79
2021/08/22 11:16:45;;;;;;;3.83;1.67;;;;;;;19.08;73.82;100017.69;4959158;28;20110;-79
2021/08/22 11:19:11;;;;;;;2.20;1.70;;;;;;;19.16;74.72;100013.50;4956030;28;20552;-79
2021/08/22 11:21:37;;;;;;;3.63;2.10;;;;;;;18.98;75.16;100015.91;4966703;28;20035;-78
2021/08/22 11:24:03;;;;;;;7.50;2.42;;;;;;;18.91;77.01;100017.31;4942138;28;20381;-79
2021/08/22 11:26:29;;;;;;;3.95;2.38;;;;;;;19.00;75.19;100019.16;4956739;28;20026;-79
2021/08/22 11:28:59;;;;;;;6.65;2.75;;;;;;;19.02;75.88;100016.13;4956960;28;20374;-79